Time;durP1;ratioP1;P1;durP2;ratioP2;P2;SDS_P1;SDS_P2;PMS_P1;PMS_P2;Temp;Humidity;BMP_temperature;BMP_pressure;BME280_temperature;BME280_humidity;BME280_pressure;Samples;Min_cycle;Max_cycle;Signal;HPM_P1;HPM_P2
2021/03/22 00:00:53;;;;;;;14.45;4.68;;;5.50;99.90;;;;;;4828597;29;20595;-76
2021/03/22 00:03:22;;;;;;;20.02;4.35;;;5.50;99.90;;;;;;4843132;29;20314;-77
2021/03/22 00:05:50;;;;;;;20.27;5.25;;;5.50;99.90;;;;;;4859546;29;20215;-76
2021/03/22 00:08:19;;;;;;;11.88;4.53;;;5.50;99.90;;;;;;4859849;29;20226;-76
2021/03/22 00:10:46;;;;;;;12.57;4.50;;;5.50;99.90;;;;;;4842989;29;20282;-77
2021/03/22 00:13:15;;;;;;;13.50;4.72;;;5.50;99.90;;;;;;4859028;29;20314;-75
2021/03/22 00:15:45;;;;;;;25.65;4.95;;;5.50;99.90;;;;;;4859778;29;20757;-77
2021/03/22 00:18:16;;;;;;;17.13;5.03;;;5.40;99.90;;;;;;4859108;29;20332;-75
2021/03/22 00:20:43;;;;;;;19.63;3.97;;;5.40;99.90;;;;;;4857039;29;20267;-75
2021/03/22 00:23:09;;;;;;;12.40;4.03;;;5.40;99.90;;;;;;4863120;29;20231;-74
2021/03/22 00:25:36;;;;;;;20.73;4.40;;;5.40;99.90;;;;;;4862228;29;20217;-73
2021/03/22 00:28:07;;;;;;;15.95;4.53;;;5.40;99.90;;;;;;4861620;29;20680;-76
2021/03/22 00:30:38;;;;;;;18.50;4.82;;;5.40;99.90;;;;;;4847245;29;20233;-75
2021/03/22 00:33:05;;;;;;;18.85;4.68;;;5.40;99.90;;;;;;4862789;29;20318;-76
2021/03/22 00:35:33;;;;;;;14.68;5.57;;;5.40;99.90;;;;;;4861488;29;20219;-75
2021/03/22 00:38:00;;;;;;;17.63;4.25;;;5.50;99.90;;;;;;4863236;29;20222;-77
2021/03/22 00:40:29;;;;;;;16.33;4.80;;;5.40;99.90;;;;;;4863544;29;20191;-76
2021/03/22 00:42:56;;;;;;;17.02;4.22;;;5.40;99.90;;;;;;4860242;29;20318;-75
2021/03/22 00:45:23;;;;;;;12.23;4.20;;;5.40;99.90;;;;;;4846476;29;20215;-75
2021/03/22 00:47:50;;;;;;;21.38;4.32;;;5.40;99.90;;;;;;4846074;29;20227;-74
2021/03/22 00:50:31;;;;;;;10.55;4.70;;;5.40;99.90;;;;;;4861982;29;20271;-76
2021/03/22 00:52:58;;;;;;;9.73;3.95;;;5.40;99.90;;;;;;4845751;29;20234;-78
2021/03/22 00:55:25;;;;;;;27.40;4.80;;;5.40;99.90;;;;;;4846409;29;20234;-74
2021/03/22 00:57:52;;;;;;;15.88;4.00;;;5.30;99.90;;;;;;4861187;29;20219;-74
2021/03/22 01:00:35;;;;;;;15.40;5.25;;;5.30;99.90;;;;;;4843200;29;20223;-77
2021/03/22 01:03:03;;;;;;;12.90;3.92;;;5.30;99.90;;;;;;4845156;29;20306;-74
2021/03/22 01:05:30;;;;;;;19.02;4.25;;;5.40;99.90;;;;;;4828930;29;20601;-76
2021/03/22 01:07:57;;;;;;;11.13;4.28;;;5.40;99.90;;;;;;4843054;29;20677;-77
2021/03/22 01:10:48;;;;;;;13.13;4.13;;;5.40;99.90;;;;;;4846860;29;20195;-76
2021/03/22 01:13:30;;;;;;;23.85;5.05;;;5.40;99.90;;;;;;4862628;29;20255;-73
2021/03/22 01:16:16;;;;;;;13.55;4.57;;;5.30;99.90;;;;;;4846416;29;20211;-78
2021/03/22 01:18:48;;;;;;;10.90;3.95;;;5.30;99.90;;;;;;4848014;29;20222;-76
2021/03/22 01:21:31;;;;;;;10.27;3.92;;;5.30;99.90;;;;;;4861602;29;20675;-75
2021/03/22 01:23:58;;;;;;;11.52;4.70;;;5.40;99.90;;;;;;4855241;29;20246;-76
2021/03/22 01:26:27;;;;;;;20.02;4.10;;;5.30;99.90;;;;;;4861678;29;20226;-74
2021/03/22 01:28:54;;;;;;;9.35;4.45;;;5.30;99.90;;;;;;4861703;29;20755;-75
2021/03/22 01:31:21;;;;;;;15.85;4.82;;;5.30;99.90;;;;;;4863013;29;20212;-75
2021/03/22 01:33:51;;;;;;;13.10;3.85;;;5.30;99.90;;;;;;4861898;29;20211;-74
2021/03/22 01:36:24;;;;;;;21.00;4.28;;;5.30;99.90;;;;;;4842346;29;20255;-76
2021/03/22 01:38:52;;;;;;;16.10;4.35;;;5.30;99.90;;;;;;4821244;29;20223;-75
2021/03/22 01:41:51;;;;;;;14.00;4.70;;;5.30;99.90;;;;;;4846389;29;20203;-76
2021/03/22 01:44:22;;;;;;;14.57;3.53;;;5.20;99.90;;;;;;4825071;29;20322;-74
2021/03/22 01:46:54;;;;;;;12.93;4.60;;;5.20;99.90;;;;;;4841215;29;20195;-76
2021/03/22 01:49:25;;;;;;;12.40;3.67;;;5.20;99.90;;;;;;4860889;29;20261;-77
2021/03/22 01:51:53;;;;;;;15.63;4.80;;;5.20;99.90;;;;;;4844455;29;20199;-75
2021/03/22 01:54:20;;;;;;;19.73;4.65;;;5.20;99.90;;;;;;4841653;29;20303;-74
2021/03/22 01:56:49;;;;;;;13.70;3.90;;;5.20;99.90;;;;;;4841135;29;20713;-76
2021/03/22 01:59:20;;;;;;;15.00;4.32;;;5.20;99.90;;;;;;4861253;29;20271;-76
2021/03/22 02:01:51;;;;;;;33.90;6.32;;;5.30;99.90;;;;;;4845398;29;20224;-75
2021/03/22 02:04:19;;;;;;;12.48;3.35;;;5.30;99.90;;;;;;4841135;29;20333;-76
2021/03/22 02:06:47;;;;;;;18.95;5.25;;;5.20;99.90;;;;;;4853821;29;20194;-76
2021/03/22 02:09:14;;;;;;;17.27;4.63;;;5.20;99.90;;;;;;4853492;29;20567;-77
2021/03/22 02:11:41;;;;;;;16.13;5.55;;;5.30;99.90;;;;;;4862829;29;20188;-77
2021/03/22 02:14:09;;;;;;;14.10;4.43;;;5.20;99.90;;;;;;4843734;29;20226;-75
2021/03/22 02:17:10;;;;;;;10.70;3.60;;;5.20;99.90;;;;;;4844455;29;20195;-76
2021/03/22 02:19:43;;;;;;;15.32;4.35;;;5.20;99.90;;;;;;4860604;29;20243;-74
2021/03/22 02:22:31;;;;;;;13.45;4.15;;;5.20;99.90;;;;;;4840700;29;20208;-76
2021/03/22 02:25:03;;;;;;;17.08;4.75;;;5.20;99.90;;;;;;4855766;29;20227;-75
2021/03/22 02:28:11;;;;;;;17.67;5.43;;;5.20;99.90;;;;;;4860317;29;20294;-78
2021/03/22 02:31:01;;;;;;;13.63;4.20;;;5.20;99.90;;;;;;4818990;29;20678;-75
2021/03/22 02:33:50;;;;;;;16.63;3.95;;;5.10;99.90;;;;;;4852406;29;20275;-73
2021/03/22 02:36:28;;;;;;;16.33;5.00;;;5.10;99.90;;;;;;4838955;29;20212;-77
2021/03/22 02:38:57;;;;;;;15.95;4.30;;;5.20;99.90;;;;;;4861606;29;20283;-75
2021/03/22 02:42:02;;;;;;;13.63;4.00;;;5.10;99.90;;;;;;4860668;29;20196;-73
2021/03/22 02:44:32;;;;;;;20.83;4.25;;;5.00;99.90;;;;;;4844360;29;20769;-76
2021/03/22 02:47:09;;;;;;;12.27;4.65;;;5.10;99.90;;;;;;4860970;29;20182;-74
2021/03/22 02:49:38;;;;;;;9.70;3.60;;;5.10;99.90;;;;;;4845569;29;20239;-76
2021/03/22 02:52:27;;;;;;;11.85;4.72;;;5.10;99.90;;;;;;4844377;29;20282;-76
2021/03/22 02:54:55;;;;;;;17.05;4.80;;;5.10;99.90;;;;;;4845355;29;20216;-74
2021/03/22 02:57:47;;;;;;;12.02;3.92;;;5.00;99.90;;;;;;4860791;29;20235;-75
2021/03/22 03:00:32;;;;;;;17.83;4.60;;;5.00;99.90;;;;;;4846154;29;20270;-74
2021/03/22 03:03:07;;;;;;;13.18;4.25;;;5.00;99.90;;;;;;4860293;29;20598;-75
2021/03/22 03:05:34;;;;;;;22.85;4.65;;;4.90;99.90;;;;;;4858780;29;20218;-77
2021/03/22 03:08:07;;;;;;;17.00;4.45;;;5.00;99.90;;;;;;4832106;29;20275;-76
2021/03/22 03:10:34;;;;;;;15.85;5.70;;;4.90;99.90;;;;;;4857928;29;20198;-77
2021/03/22 03:13:01;;;;;;;12.75;3.70;;;5.00;99.90;;;;;;4837661;29;20690;-75
2021/03/22 03:15:27;;;;;;;16.35;3.90;;;4.90;99.90;;;;;;4842001;29;20649;-76
2021/03/22 03:17:54;;;;;;;14.43;4.93;;;4.90;99.90;;;;;;4860029;29;20572;-76
2021/03/22 03:20:25;;;;;;;26.48;4.95;;;4.80;99.90;;;;;;4860415;29;20238;-75
2021/03/22 03:22:52;;;;;;;21.50;6.53;;;4.80;99.90;;;;;;4841625;29;20640;-74
2021/03/22 03:25:19;;;;;;;21.52;5.80;;;4.80;99.90;;;;;;4843590;29;20694;-76
2021/03/22 03:27:45;;;;;;;15.23;5.53;;;4.80;99.90;;;;;;4859122;29;20682;-74
2021/03/22 03:30:19;;;;;;;11.85;4.05;;;4.80;99.90;;;;;;4860432;29;20210;-76
2021/03/22 03:32:46;;;;;;;11.93;4.15;;;4.80;99.90;;;;;;4859828;29;20633;-73
2021/03/22 03:35:14;;;;;;;14.43;4.97;;;4.80;99.90;;;;;;4843413;29;20257;-75
2021/03/22 03:37:41;;;;;;;12.70;3.92;;;4.80;99.90;;;;;;4853500;29;20211;-75
2021/03/22 03:40:12;;;;;;;16.25;4.47;;;4.80;99.90;;;;;;4860651;29;20307;-76
2021/03/22 03:42:39;;;;;;;14.65;4.20;;;4.80;99.90;;;;;;4842557;29;20782;-74
2021/03/22 03:45:09;;;;;;;15.98;4.75;;;4.80;99.90;;;;;;4859659;29;20299;-76
2021/03/22 03:47:37;;;;;;;18.90;4.07;;;4.80;99.90;;;;;;4857023;29;20219;-76
2021/03/22 03:50:07;;;;;;;16.95;4.30;;;4.80;99.90;;;;;;4843517;29;20279;-77
2021/03/22 03:52:34;;;;;;;16.65;4.93;;;4.80;99.90;;;;;;4857820;29;20709;-76
2021/03/22 03:55:00;;;;;;;19.00;5.05;;;4.80;99.90;;;;;;4843207;29;20287;-75
2021/03/22 03:57:27;;;;;;;12.00;4.20;;;4.80;99.90;;;;;;4828937;29;20279;-75
2021/03/22 03:59:53;;;;;;;16.15;4.78;;;4.70;99.90;;;;;;4859243;29;20207;-75
2021/03/22 04:02:19;;;;;;;15.15;4.75;;;4.80;99.90;;;;;;4855692;29;20571;-75
2021/03/22 04:04:46;;;;;;;13.95;4.80;;;4.70;99.90;;;;;;4838614;29;20223;-75
2021/03/22 04:07:13;;;;;;;7.15;3.67;;;4.70;99.90;;;;;;4858227;29;20194;-77
2021/03/22 04:09:39;;;;;;;20.80;5.70;;;4.70;99.90;;;;;;4855373;29;20239;-76
2021/03/22 04:12:06;;;;;;;16.17;3.88;;;4.70;99.90;;;;;;4841308;29;20733;-76
2021/03/22 04:14:32;;;;;;;21.63;4.80;;;4.70;99.90;;;;;;4857641;29;20289;-76
2021/03/22 04:16:59;;;;;;;19.38;5.03;;;4.70;99.90;;;;;;4843982;29;20243;-75
2021/03/22 04:19:26;;;;;;;11.40;4.97;;;4.70;99.90;;;;;;4843140;29;20222;-76
2021/03/22 04:21:52;;;;;;;16.23;5.07;;;4.70;99.90;;;;;;4859481;29;20206;-75
2021/03/22 04:24:19;;;;;;;18.73;4.85;;;4.60;99.90;;;;;;4859377;29;20227;-74
2021/03/22 04:26:45;;;;;;;14.73;4.72;;;4.70;99.90;;;;;;4842720;29;20196;-76
2021/03/22 04:29:12;;;;;;;17.75;5.20;;;4.70;99.90;;;;;;4857516;29;20702;-75
2021/03/22 04:31:39;;;;;;;12.32;4.47;;;4.70;99.90;;;;;;4860106;29;20203;-76
2021/03/22 04:34:06;;;;;;;13.15;5.28;;;4.70;99.90;;;;;;4859193;29;20667;-74
2021/03/22 04:36:36;;;;;;;17.63;5.90;;;4.70;99.90;;;;;;4842241;29;20179;-76
2021/03/22 04:39:07;;;;;;;18.20;5.05;;;4.70;99.90;;;;;;4858814;29;20235;-76
2021/03/22 04:41:35;;;;;;;18.50;5.40;;;4.80;99.90;;;;;;4859684;29;20228;-76
2021/03/22 04:44:02;;;;;;;20.35;5.38;;;4.80;99.90;;;;;;4841420;29;20251;-76
2021/03/22 04:46:29;;;;;;;18.85;5.43;;;4.70;99.90;;;;;;4842145;29;20191;-75
2021/03/22 04:48:59;;;;;;;14.65;5.32;;;4.70;99.90;;;;;;4842355;29;20223;-75
2021/03/22 04:51:26;;;;;;;14.07;5.55;;;4.60;99.90;;;;;;4858499;29;20206;-76
2021/03/22 04:53:53;;;;;;;16.75;5.15;;;4.60;99.90;;;;;;4858510;29;20263;-73
2021/03/22 04:56:21;;;;;;;16.77;5.25;;;4.60;99.90;;;;;;4858901;29;20219;-74
2021/03/22 04:58:48;;;;;;;17.33;5.10;;;4.60;99.90;;;;;;4842096;29;20235;-75
2021/03/22 05:01:14;;;;;;;23.40;6.25;;;4.50;99.90;;;;;;4848330;29;20287;-74
2021/03/22 05:03:42;;;;;;;15.50;6.05;;;4.50;99.90;;;;;;4859164;29;20239;-77
2021/03/22 05:06:09;;;;;;;19.73;5.88;;;4.50;99.90;;;;;;4844876;29;20223;-75
2021/03/22 05:08:36;;;;;;;14.05;6.00;;;4.50;99.90;;;;;;4861415;29;20710;-76
2021/03/22 05:11:03;;;;;;;16.92;6.60;;;4.50;99.90;;;;;;4862926;29;20199;-74
2021/03/22 05:13:29;;;;;;;16.60;5.65;;;4.50;99.90;;;;;;4861654;29;20271;-76
2021/03/22 05:15:57;;;;;;;13.20;5.78;;;4.50;99.90;;;;;;4860485;29;20267;-74
2021/03/22 05:18:26;;;;;;;19.77;10.07;;;4.40;99.90;;;;;;4846064;29;20400;-76
2021/03/22 05:20:58;;;;;;;15.45;6.20;;;4.40;99.90;;;;;;4863979;29;20198;-75
2021/03/22 05:23:27;;;;;;;11.40;4.70;;;4.40;99.90;;;;;;4861095;29;20302;-73
2021/03/22 05:25:55;;;;;;;17.30;6.47;;;4.40;99.90;;;;;;4861347;29;20226;-74
2021/03/22 05:28:24;;;;;;;15.05;6.57;;;4.40;99.90;;;;;;4861516;29;20710;-75
2021/03/22 05:30:51;;;;;;;21.00;5.95;;;4.40;99.90;;;;;;4846317;29;20200;-74
2021/03/22 05:33:19;;;;;;;15.23;5.50;;;4.40;99.90;;;;;;4845498;29;20227;-74
2021/03/22 05:35:49;;;;;;;21.65;6.85;;;4.40;99.90;;;;;;4845184;29;20670;-76
2021/03/22 05:38:16;;;;;;;27.75;7.82;;;4.40;99.90;;;;;;4860502;29;20271;-76
2021/03/22 05:40:44;;;;;;;19.17;7.72;;;4.50;99.90;;;;;;4862702;29;20239;-74
2021/03/22 05:43:57;;;;;;;17.50;6.60;;;4.50;99.90;;;;;;4861387;29;20311;-77
2021/03/22 05:46:59;;;;;;;21.55;6.78;;;4.50;99.90;;;;;;4845603;29;20199;-75
2021/03/22 05:50:05;;;;;;;18.08;6.57;;;4.60;99.90;;;;;;4847742;29;20219;-76
2021/03/22 05:52:46;;;;;;;12.73;5.80;;;4.60;99.90;;;;;;4861363;29;20302;-76
2021/03/22 05:55:31;;;;;;;23.50;8.68;;;4.60;99.90;;;;;;4845438;29;20578;-76
2021/03/22 05:58:20;;;;;;;16.77;6.53;;;4.60;99.90;;;;;;4843961;29;20275;-77
2021/03/22 06:00:54;;;;;;;17.10;6.10;;;4.50;99.90;;;;;;4839449;29;20218;-76
2021/03/22 06:03:43;;;;;;;17.33;6.50;;;4.50;99.90;;;;;;4845440;29;20226;-76
2021/03/22 06:06:21;;;;;;;18.67;6.95;;;4.60;99.90;;;;;;4861234;29;20586;-74
2021/03/22 06:09:03;;;;;;;21.38;7.93;;;4.50;99.90;;;;;;4860703;29;20686;-76
2021/03/22 06:11:33;;;;;;;17.05;7.75;;;4.60;99.90;;;;;;4829349;29;20207;-75
2021/03/22 06:14:16;;;;;;;20.58;8.30;;;4.60;99.90;;;;;;4873744;23;20227;-75
2021/03/22 06:16:46;;;;;;;11.68;6.88;;;4.60;99.90;;;;;;4852590;29;20319;-74
2021/03/22 06:19:37;;;;;;;19.65;7.15;;;4.60;99.90;;;;;;4843782;29;20216;-74
2021/03/22 06:22:05;;;;;;;24.02;7.30;;;4.70;99.90;;;;;;4860509;29;20191;-75
2021/03/22 06:24:32;;;;;;;21.80;7.07;;;4.70;99.90;;;;;;4860386;29;20310;-75
2021/03/22 06:27:00;;;;;;;17.95;7.20;;;4.70;99.90;;;;;;4842980;29;20207;-74
2021/03/22 06:29:43;;;;;;;15.98;6.32;;;4.70;99.90;;;;;;4858371;29;20223;-75
2021/03/22 06:32:24;;;;;;;24.65;8.38;;;4.70;99.90;;;;;;4859558;29;20195;-75
2021/03/22 06:34:55;;;;;;;19.75;7.18;;;4.70;99.90;;;;;;4854546;29;20258;-75
2021/03/22 06:37:30;;;;;;;18.60;7.72;;;4.70;99.90;;;;;;4850302;29;20251;-75
2021/03/22 06:40:11;;;;;;;18.48;6.55;;;4.70;99.90;;;;;;4860090;29;20606;-75
2021/03/22 06:42:40;;;;;;;12.73;6.93;;;4.60;99.90;;;;;;4857624;29;20215;-75
2021/03/22 06:45:27;;;;;;;17.55;8.85;;;4.60;99.90;;;;;;4846905;29;20298;-75
2021/03/22 06:48:23;;;;;;;31.83;8.35;;;4.60;99.90;;;;;;4857992;29;20223;-75
2021/03/22 06:50:54;;;;;;;17.23;7.93;;;4.80;99.90;;;;;;4857279;29;20224;-75
2021/03/22 06:53:34;;;;;;;21.85;9.68;;;4.80;99.90;;;;;;4842781;29;20693;-75
2021/03/22 06:56:19;;;;;;;27.50;9.05;;;4.80;99.90;;;;;;4856968;29;20221;-75
2021/03/22 06:58:47;;;;;;;21.73;8.60;;;4.80;99.90;;;;;;4855649;29;20253;-75
2021/03/22 07:01:28;;;;;;;19.40;8.10;;;4.80;99.90;;;;;;4860322;29;20188;-75
2021/03/22 07:04:18;;;;;;;20.75;8.65;;;4.80;99.90;;;;;;4858770;29;20590;-75
2021/03/22 07:07:04;;;;;;;33.25;9.38;;;4.90;99.90;;;;;;4833030;29;20256;-75
2021/03/22 07:09:32;;;;;;;27.58;9.93;;;4.90;99.90;;;;;;4837039;29;20226;-75
2021/03/22 07:11:59;;;;;;;20.88;9.82;;;5.00;99.90;;;;;;4859095;29;20195;-75
2021/03/22 07:14:30;;;;;;;19.27;9.73;;;5.00;99.90;;;;;;4857112;29;20230;-75
2021/03/22 07:17:21;;;;;;;15.05;8.38;;;5.10;99.90;;;;;;4858077;29;20601;-75
2021/03/22 07:20:14;;;;;;;21.50;8.98;;;5.10;99.90;;;;;;4856080;29;20705;-75
2021/03/22 07:22:41;;;;;;;32.38;10.18;;;5.20;99.90;;;;;;4857158;29;20226;-75
2021/03/22 07:25:31;;;;;;;23.05;11.02;;;5.20;99.90;;;;;;4856963;29;20761;-75
2021/03/22 07:28:10;;;;;;;14.27;7.95;;;5.20;99.90;;;;;;4854969;29;20863;-75
2021/03/22 07:30:49;;;;;;;24.48;9.35;;;5.20;99.90;;;;;;4858678;29;20554;-75
2021/03/22 07:33:54;;;;;;;17.40;8.40;;;5.20;99.90;;;;;;4842235;29;20229;-75
2021/03/22 07:36:22;;;;;;;17.67;8.50;;;5.30;99.90;;;;;;4805276;29;20219;-75
2021/03/22 07:39:00;;;;;;;17.83;8.77;;;5.20;99.90;;;;;;4858052;29;20230;-75
2021/03/22 07:41:27;;;;;;;27.15;10.00;;;5.20;99.90;;;;;;4857660;29;20199;-75
2021/03/22 07:44:25;;;;;;;20.73;8.95;;;5.30;99.90;;;;;;4853037;29;20227;-75
2021/03/22 07:46:51;;;;;;;20.20;8.52;;;5.30;99.90;;;;;;4858926;29;20206;-75
2021/03/22 07:49:44;;;;;;;22.33;10.07;;;5.40;99.90;;;;;;4857792;29;20255;-75
2021/03/22 07:52:17;;;;;;;24.27;8.35;;;5.60;99.90;;;;;;4856560;29;20551;-75
2021/03/22 07:55:24;;;;;;;14.55;7.85;;;5.80;99.90;;;;;;4842658;29;20223;-75
2021/03/22 07:58:15;;;;;;;14.30;7.70;;;6.10;99.90;;;;;;4838974;29;20575;-75
2021/03/22 08:01:01;;;;;;;14.50;7.43;;;6.30;99.90;;;;;;4851083;29;20206;-74
2021/03/22 08:03:46;;;;;;;12.30;6.40;;;6.50;99.90;;;;;;4853976;29;20258;-75
2021/03/22 08:06:19;;;;;;;12.55;5.97;;;6.60;99.90;;;;;;4837341;29;20211;-74
2021/03/22 08:09:06;;;;;;;13.82;6.95;;;6.80;99.90;;;;;;4852924;29;20223;-74
2021/03/22 08:12:02;;;;;;;18.30;7.38;;;6.70;99.90;;;;;;4844433;29;20187;-74
2021/03/22 08:14:34;;;;;;;15.88;7.65;;;6.70;99.90;;;;;;4826432;29;20223;-74
2021/03/22 08:17:15;;;;;;;17.15;6.55;;;6.90;99.90;;;;;;4842499;29;20187;-74
2021/03/22 08:20:01;;;;;;;11.07;6.55;;;7.00;99.90;;;;;;4858510;29;20301;-74
2021/03/22 08:22:50;;;;;;;14.70;6.40;;;7.20;99.90;;;;;;4838330;29;20220;-74
2021/03/22 08:25:36;;;;;;;12.65;7.05;;;7.30;99.90;;;;;;4848974;29;20207;-74
2021/03/22 08:28:27;;;;;;;12.25;6.55;;;7.40;99.90;;;;;;4838283;29;20232;-74
2021/03/22 08:31:05;;;;;;;16.63;7.28;;;7.50;99.90;;;;;;4857435;29;20202;-74
2021/03/22 08:33:44;;;;;;;11.65;7.38;;;7.70;99.90;;;;;;4841868;29;20239;-74
2021/03/22 08:36:25;;;;;;;18.10;6.60;;;7.70;99.90;;;;;;4854586;29;20310;-74
2021/03/22 08:38:59;;;;;;;11.13;6.35;;;8.00;99.90;;;;;;4858264;29;20734;-74
2021/03/22 08:42:01;;;;;;;14.63;6.85;;;8.20;99.90;;;;;;4860017;29;20742;-74
2021/03/22 08:44:47;;;;;;;14.45;4.97;;;8.30;99.90;;;;;;4854250;29;20220;-75
2021/03/22 08:47:51;;;;;;;14.52;6.38;;;8.30;99.90;;;;;;4857015;29;20239;-74
2021/03/22 08:50:20;;;;;;;15.55;6.05;;;8.00;99.90;;;;;;4861683;29;20215;-74
2021/03/22 08:52:51;;;;;;;11.55;7.03;;;7.90;99.90;;;;;;4842568;29;20220;-74
2021/03/22 08:55:21;;;;;;;16.92;8.25;;;7.80;99.90;;;;;;4845176;29;20210;-74
2021/03/22 08:57:56;;;;;;;19.25;7.47;;;7.60;99.90;;;;;;4861080;29;20648;-74
2021/03/22 09:00:35;;;;;;;14.93;6.63;;;7.40;99.90;;;;;;4841918;29;20203;-74
2021/03/22 09:03:15;;;;;;;10.15;7.07;;;7.40;99.90;;;;;;4860571;29;20611;-74
2021/03/22 09:06:07;;;;;;;13.25;6.65;;;7.40;99.90;;;;;;4861481;29;20207;-74
2021/03/22 09:09:00;;;;;;;10.70;5.85;;;7.50;99.90;;;;;;4858650;29;20226;-74
2021/03/22 09:11:48;;;;;;;12.70;6.85;;;7.80;99.90;;;;;;4843938;29;20200;-74
2021/03/22 09:14:42;;;;;;;10.77;5.50;;;7.60;99.90;;;;;;4859466;29;20219;-74
2021/03/22 09:17:34;;;;;;;13.68;5.55;;;7.40;99.90;;;;;;4859982;29;20207;-74
2021/03/22 09:20:31;;;;;;;17.40;6.72;;;7.30;99.90;;;;;;4824161;29;20670;-74
2021/03/22 09:23:04;;;;;;;12.55;5.10;;;7.30;99.90;;;;;;4842800;29;20618;-74
2021/03/22 09:25:53;;;;;;;12.05;4.97;;;7.60;99.90;;;;;;4843281;29;20570;-74
2021/03/22 09:28:26;;;;;;;8.65;5.60;;;7.70;99.90;;;;;;4843313;29;20219;-74
2021/03/22 09:31:16;;;;;;;10.05;4.72;;;7.80;99.90;;;;;;4834217;29;20192;-74
2021/03/22 09:34:00;;;;;;;9.02;4.47;;;7.80;99.90;;;;;;4841705;29;20236;-74
2021/03/22 09:36:29;;;;;;;12.90;5.72;;;7.90;99.90;;;;;;4855571;29;20191;-74
2021/03/22 09:39:25;;;;;;;11.77;5.18;;;8.10;99.90;;;;;;4844153;29;20311;-74
2021/03/22 09:41:55;;;;;;;7.93;4.88;;;8.10;99.90;;;;;;4855707;29;20211;-75
2021/03/22 09:44:25;;;;;;;8.88;3.88;;;8.40;99.90;;;;;;4843126;29;20334;-74
2021/03/22 09:47:17;;;;;;;10.88;5.30;;;8.70;99.90;;;;;;4860688;29;20282;-75
2021/03/22 09:50:02;;;;;;;10.98;4.85;;;8.70;99.90;;;;;;4831000;29;20280;-75
2021/03/22 09:53:13;;;;;;;8.30;4.80;;;8.70;99.90;;;;;;4858774;29;20227;-75
2021/03/22 09:56:03;;;;;;;10.07;5.40;;;8.70;99.90;;;;;;4860664;29;20471;-75
2021/03/22 09:58:34;;;;;;;13.77;5.95;;;8.50;99.90;;;;;;4833830;29;20223;-74
2021/03/22 10:01:07;;;;;;;11.02;4.03;;;8.30;99.90;;;;;;4859113;29;20191;-75
2021/03/22 10:04:17;;;;;;;8.75;3.90;;;8.10;99.90;;;;;;4859499;29;20242;-75
2021/03/22 10:06:50;;;;;;;8.80;3.95;;;7.90;99.90;;;;;;4854268;29;20192;-75
2021/03/22 10:09:25;;;;;;;9.63;4.13;;;7.80;99.90;;;;;;4840374;29;20227;-75
2021/03/22 10:11:54;;;;;;;8.55;3.90;;;7.80;99.90;;;;;;4858982;29;20534;-74
2021/03/22 10:14:36;;;;;;;12.95;4.45;;;7.70;99.90;;;;;;4858205;29;20228;-74
2021/03/22 10:17:05;;;;;;;12.07;4.75;;;7.60;99.90;;;;;;4859813;29;20582;-74
2021/03/22 10:19:36;;;;;;;9.50;4.60;;;7.60;99.90;;;;;;4844445;29;20531;-74
2021/03/22 10:22:20;;;;;;;11.40;4.47;;;7.70;99.90;;;;;;4859533;29;20199;-74
2021/03/22 10:25:02;;;;;;;9.75;4.05;;;7.90;99.90;;;;;;4846476;29;20211;-75
2021/03/22 10:27:35;;;;;;;5.30;3.55;;;8.30;99.90;;;;;;4859594;29;20245;-75
2021/03/22 10:30:07;;;;;;;8.27;5.28;;;8.40;99.90;;;;;;4860095;29;20219;-74
2021/03/22 10:32:34;;;;;;;7.35;4.35;;;8.40;99.90;;;;;;4857659;29;20276;-75
2021/03/22 10:35:12;;;;;;;11.88;5.03;;;8.20;99.90;;;;;;4858830;29;20207;-75
2021/03/22 10:37:52;;;;;;;9.73;4.72;;;8.20;99.90;;;;;;4838715;29;20226;-75
2021/03/22 10:40:27;;;;;;;9.05;4.38;;;8.10;99.90;;;;;;4850368;29;20203;-74
2021/03/22 10:42:56;;;;;;;10.68;4.38;;;7.90;99.90;;;;;;4855803;29;20258;-74
2021/03/22 10:45:22;;;;;;;8.00;4.55;;;7.90;99.90;;;;;;4858063;29;20646;-74
2021/03/22 10:47:55;;;;;;;8.27;3.88;;;7.80;99.90;;;;;;4859441;29;20702;-74
2021/03/22 10:50:28;;;;;;;11.07;4.30;;;7.80;99.90;;;;;;4859720;29;20211;-74
2021/03/22 10:53:21;;;;;;;9.45;3.85;;;7.70;99.90;;;;;;4852212;29;20253;-74
2021/03/22 10:55:49;;;;;;;18.17;4.35;;;7.70;99.90;;;;;;4851907;29;20249;-75
2021/03/22 10:58:37;;;;;;;6.50;3.50;;;7.60;99.90;;;;;;4854051;29;20242;-75
2021/03/22 11:01:06;;;;;;;6.25;3.78;;;7.70;99.90;;;;;;4859903;29;20211;-75
2021/03/22 11:03:35;;;;;;;8.00;4.10;;;7.60;99.90;;;;;;4842251;29;20238;-75
2021/03/22 11:06:11;;;;;;;7.57;4.05;;;7.60;99.90;;;;;;4858931;29;20211;-74
2021/03/22 11:08:55;;;;;;;7.43;3.65;;;7.60;99.90;;;;;;4835736;29;20233;-74
2021/03/22 11:11:21;;;;;;;7.78;3.80;;;7.60;99.90;;;;;;4859447;29;20187;-74
2021/03/22 11:13:53;;;;;;;7.03;4.03;;;7.60;99.90;;;;;;4841546;29;20287;-74
2021/03/22 11:16:26;;;;;;;6.63;3.85;;;7.60;99.90;;;;;;4859222;29;20218;-74
2021/03/22 11:18:58;;;;;;;8.55;4.70;;;7.50;99.90;;;;;;4842797;29;20215;-74
2021/03/22 11:21:27;;;;;;;7.50;4.28;;;7.50;99.90;;;;;;4857403;29;20196;-74
2021/03/22 11:23:57;;;;;;;9.18;3.90;;;7.50;99.90;;;;;;4858352;29;20223;-74
2021/03/22 11:26:29;;;;;;;5.90;3.08;;;7.60;99.90;;;;;;4858976;29;20183;-74
2021/03/22 11:29:19;;;;;;;5.68;2.70;;;7.60;99.90;;;;;;4840769;29;20255;-74
2021/03/22 11:31:54;;;;;;;9.43;3.38;;;7.60;99.90;;;;;;4859619;29;20194;-74
2021/03/22 11:34:27;;;;;;;8.45;2.83;;;7.50;99.90;;;;;;4857743;29;20233;-74
2021/03/22 11:37:12;;;;;;;6.13;2.70;;;7.50;99.90;;;;;;4846284;29;20200;-74
2021/03/22 11:39:40;;;;;;;6.70;2.50;;;7.50;99.90;;;;;;4824973;29;20231;-74
2021/03/22 11:42:20;;;;;;;10.52;3.10;;;7.50;99.90;;;;;;4850091;29;20187;-75
2021/03/22 11:44:47;;;;;;;7.18;2.80;;;7.40;99.90;;;;;;4857986;29;20222;-74
2021/03/22 11:47:26;;;;;;;5.72;3.08;;;7.50;99.90;;;;;;4856165;29;20183;-74
2021/03/22 11:49:55;;;;;;;4.55;2.50;;;7.60;99.90;;;;;;4841093;29;20211;-74
2021/03/22 11:52:31;;;;;;;6.28;3.40;;;7.60;99.90;;;;;;4840830;29;21962;-74
2021/03/22 11:54:59;;;;;;;7.13;3.35;;;7.70;99.90;;;;;;4839988;29;20215;-74
2021/03/22 11:57:51;;;;;;;8.23;3.38;;;7.70;99.90;;;;;;4840334;29;20248;-74
2021/03/22 12:00:20;;;;;;;7.75;4.00;;;7.70;99.90;;;;;;4844453;29;20607;-74
2021/03/22 12:03:09;;;;;;;10.68;5.05;;;7.80;99.90;;;;;;4858837;29;20643;-74
2021/03/22 12:05:40;;;;;;;5.88;2.83;;;7.80;99.90;;;;;;4859152;29;20221;-74
2021/03/22 12:08:34;;;;;;;5.43;2.83;;;7.80;99.90;;;;;;4826338;29;20258;-74
2021/03/22 12:11:07;;;;;;;8.20;2.60;;;7.80;99.90;;;;;;4844623;29;20211;-74
2021/03/22 12:13:36;;;;;;;6.25;2.60;;;7.80;99.90;;;;;;4858118;29;20215;-74
2021/03/22 12:16:05;;;;;;;5.90;3.15;;;7.90;99.90;;;;;;4860960;29;20740;-74
2021/03/22 12:18:39;;;;;;;4.22;2.85;;;7.90;99.90;;;;;;4845750;29;20219;-74
2021/03/22 12:21:13;;;;;;;8.27;2.78;;;7.90;99.90;;;;;;4862278;29;20582;-74
2021/03/22 12:23:40;;;;;;;8.55;3.10;;;7.90;99.90;;;;;;4860763;29;20237;-74
2021/03/22 12:26:10;;;;;;;4.25;2.80;;;7.90;99.90;;;;;;4845552;29;20215;-74
2021/03/22 12:28:53;;;;;;;4.57;2.63;;;7.90;99.90;;;;;;4861298;29;20215;-74
2021/03/22 12:31:44;;;;;;;6.22;2.90;;;8.00;99.90;;;;;;4862418;29;20194;-74
2021/03/22 12:34:37;;;;;;;5.93;2.90;;;8.00;99.90;;;;;;4860260;29;20229;-74
2021/03/22 12:37:06;;;;;;;6.65;3.72;;;8.10;99.90;;;;;;4835160;29;20216;-74
2021/03/22 12:39:35;;;;;;;4.53;2.33;;;8.10;99.90;;;;;;4862362;29;20243;-74
2021/03/22 12:42:08;;;;;;;5.47;2.53;;;8.20;99.90;;;;;;4860866;29;20201;-74
2021/03/22 12:44:35;;;;;;;4.70;2.33;;;8.10;99.90;;;;;;4850470;29;20271;-74
2021/03/22 12:47:03;;;;;;;6.03;2.92;;;8.10;99.90;;;;;;4859933;29;20319;-74
2021/03/22 12:49:31;;;;;;;6.78;4.05;;;8.20;99.90;;;;;;4860812;29;20211;-74
2021/03/22 12:51:57;;;;;;;6.45;3.13;;;8.20;99.90;;;;;;4843935;29;20637;-74
2021/03/22 12:54:25;;;;;;;13.82;3.85;;;8.20;99.90;;;;;;4860457;29;20778;-74
2021/03/22 12:56:53;;;;;;;5.90;3.80;;;8.30;99.90;;;;;;4860324;29;20255;-74
2021/03/22 12:59:36;;;;;;;7.85;4.45;;;8.30;99.90;;;;;;4859872;29;20608;-74
2021/03/22 13:02:19;;;;;;;7.38;3.63;;;8.30;99.90;;;;;;4851593;29;20567;-74
2021/03/22 13:04:46;;;;;;;11.10;4.40;;;8.30;99.90;;;;;;4855920;29;20230;-74
2021/03/22 13:07:18;;;;;;;10.05;4.50;;;8.30;99.90;;;;;;4861231;29;20251;-74
2021/03/22 13:09:46;;;;;;;9.52;4.55;;;8.20;99.90;;;;;;4844232;29;20211;-74
2021/03/22 13:12:26;;;;;;;11.43;4.80;;;8.20;99.90;;;;;;4843736;29;20199;-74
2021/03/22 13:14:55;;;;;;;7.07;4.95;;;8.20;99.90;;;;;;4860806;29;20226;-74
2021/03/22 13:17:28;;;;;;;10.23;5.05;;;8.10;99.90;;;;;;4860115;29;20330;-74
2021/03/22 13:19:56;;;;;;;7.53;3.17;;;8.10;99.90;;;;;;4861604;29;20199;-74
2021/03/22 13:22:24;;;;;;;5.18;3.60;;;8.00;99.90;;;;;;4844022;29;20242;-74
2021/03/22 13:25:00;;;;;;;6.93;3.28;;;8.00;99.90;;;;;;4845909;29;20230;-74
2021/03/22 13:27:27;;;;;;;9.30;4.40;;;7.90;99.90;;;;;;4859591;29;20222;-74
2021/03/22 13:29:54;;;;;;;9.90;4.97;;;7.90;99.90;;;;;;4855521;29;20619;-74